Terminal Aerodrome Forecast
Issued by NWS

Home | Current Version | Previous Version | Text Only | Print | Product List | Glossary On
Versions: 1 2 3 4 5 6 7 8 9 10 11 12 13 14 15 16 17 18 19 20 21 22 23 24 25 26
000
FTUS44 KLIX 221120
TAFHUM
TAF
KHUM 221120Z 2212/2312 17019G28KT 5SM -SHRA VCTS BKN020CB
     FM221500 18021G29KT 5SM -SHRA VCTS SCT020CB BKN030
     FM222100 19020G29KT 5SM -SHRA VCTS SCT030CB BKN040
     FM230000 19018G27KT P6SM -SHRA VCTS SCT030CB BKN040
     FM230300 18016G24KT P6SM -SHRA VCTS BKN030CB=

USA.gov is the U.S. government's official web portal to all federal, state and local government web resources and services.